createdAt,value
2017-11-09T00:00:45.959Z,62.47
2017-11-09T00:03:13.491Z,61.27
2017-11-09T00:05:46.679Z,63.20
2017-11-09T00:08:14.974Z,60.23
2017-11-09T00:10:43.236Z,64.50
2017-11-09T00:13:10.773Z,60.50
2017-11-09T00:15:38.282Z,61.60
2017-11-09T00:18:05.810Z,57.90
2017-11-09T00:20:33.316Z,57.20
2017-11-09T00:23:00.863Z,60.17
2017-11-09T00:25:28.362Z,62.50
2017-11-09T00:27:55.860Z,61.87
2017-11-09T00:30:24.154Z,59.27
2017-11-09T00:32:52.422Z,56.43
2017-11-09T00:35:19.951Z,60.67
2017-11-09T00:37:47.451Z,63.13
2017-11-09T00:40:14.996Z,62.53
2017-11-09T00:42:42.507Z,61.03
2017-11-09T00:45:10.003Z,60.27
2017-11-09T00:47:37.531Z,62.87
2017-11-09T00:50:05.037Z,62.90
2017-11-09T00:52:32.588Z,60.10
2017-11-09T00:55:00.103Z,61.90
2017-11-09T00:57:27.650Z,64.27
2017-11-09T00:59:55.915Z,61.87
2017-11-09T01:02:23.415Z,61.40
2017-11-09T01:04:51.712Z,60.67
2017-11-09T01:07:19.980Z,64.93
2017-11-09T01:09:49.340Z,60.40
2017-11-09T01:12:16.896Z,66.10
2017-11-09T01:14:44.477Z,65.47
2017-11-09T01:17:11.981Z,62.17
2017-11-09T01:19:39.518Z,64.77
2017-11-09T01:22:07.015Z,65.47
2017-11-09T01:24:34.547Z,66.13
2017-11-09T01:27:02.042Z,67.17
2017-11-09T01:29:29.586Z,65.07
2017-11-09T01:31:57.855Z,62.17
2017-11-09T01:34:25.355Z,69.67
2017-11-09T01:36:52.890Z,68.37
2017-11-09T01:39:20.387Z,71.33
2017-11-09T01:41:48.684Z,65.30
2017-11-09T01:44:16.190Z,66.60
2017-11-09T01:46:43.720Z,68.10
2017-11-09T01:49:11.986Z,69.90
2017-11-09T01:51:39.516Z,72.67
2017-11-09T01:54:07.034Z,66.77
2017-11-09T01:56:35.307Z,67.87
2017-11-09T01:59:02.840Z,69.73
2017-11-09T02:01:30.339Z,68.23
2017-11-09T02:03:57.869Z,69.30
2017-11-09T02:06:25.384Z,67.40
2017-11-09T02:08:53.686Z,66.37
2017-11-09T02:11:21.190Z,67.07
2017-11-09T02:13:49.498Z,65.57
2017-11-09T02:16:17.006Z,65.80
2017-11-09T02:18:44.525Z,66.67
2017-11-09T02:21:12.060Z,65.00
2017-11-09T02:23:39.554Z,69.10
2017-11-09T02:26:07.854Z,64.73
2017-11-09T02:28:36.118Z,64.37
2017-11-09T02:31:03.650Z,66.97
2017-11-09T02:33:31.145Z,64.93
2017-11-09T02:35:58.693Z,68.37
2017-11-09T02:38:26.190Z,67.00
2017-11-09T02:40:53.691Z,63.30
2017-11-09T02:43:21.991Z,66.90
2017-11-09T02:45:50.255Z,67.83
2017-11-09T02:48:17.787Z,66.77
2017-11-09T02:53:36.075Z,66.30
2017-11-09T02:56:03.576Z,67.70
2017-11-09T02:58:31.109Z,64.03
2017-11-09T03:00:58.610Z,63.53
2017-11-09T03:03:26.150Z,64.73
2017-11-09T03:05:53.650Z,67.20
2017-11-09T03:08:21.947Z,66.60
2017-11-09T03:10:49.447Z,66.40
2017-11-09T03:13:17.048Z,65.57
2017-11-09T03:15:45.706Z,68.70
2017-11-09T03:18:13.212Z,67.97
2017-11-09T03:20:40.747Z,71.37
2017-11-09T03:23:08.247Z,68.10
2017-11-09T03:25:36.556Z,74.90
2017-11-09T03:28:04.058Z,72.20
2017-11-09T03:30:31.593Z,70.37
2017-11-09T03:32:59.105Z,71.83
2017-11-09T03:35:26.656Z,72.23
2017-11-09T03:37:54.159Z,71.40
2017-11-09T03:40:21.661Z,69.40
2017-11-09T03:42:49.968Z,69.60
2017-11-09T03:45:17.468Z,72.60
2017-11-09T03:47:45.003Z,70.77
2017-11-09T03:50:12.504Z,72.20
2017-11-09T03:52:40.054Z,67.77
2017-11-09T03:55:07.559Z,69.77
2017-11-09T03:57:35.090Z,66.97
2017-11-09T04:00:03.362Z,67.03
2017-11-09T04:02:31.663Z,63.57
2017-11-09T04:04:59.966Z,65.17
2017-11-09T04:07:27.474Z,66.37
2017-11-09T04:09:55.031Z,64.63
2017-11-09T04:12:23.300Z,65.13
2017-11-09T04:14:50.843Z,67.20
2017-11-09T04:17:18.341Z,65.43
2017-11-09T04:19:45.900Z,70.90
2017-11-09T04:22:14.163Z,67.87
2017-11-09T04:24:41.714Z,64.27
2017-11-09T04:27:09.212Z,66.47
2017-11-09T04:29:36.706Z,67.17
2017-11-09T04:32:05.007Z,67.67
2017-11-09T04:34:32.511Z,65.53
2017-11-09T04:37:00.081Z,65.57
2017-11-09T04:39:27.582Z,65.13
2017-11-09T04:41:55.115Z,61.70
2017-11-09T04:44:22.614Z,63.00
2017-11-09T04:46:50.150Z,61.80
2017-11-09T04:49:17.653Z,59.70
2017-11-09T04:51:45.226Z,57.17
2017-11-09T04:54:12.727Z,60.43
2017-11-09T04:56:41.043Z,56.47
2017-11-09T04:59:08.542Z,54.90
2017-11-09T05:01:36.047Z,55.73
2017-11-09T05:04:03.586Z,56.17
2017-11-09T05:06:31.086Z,54.50
2017-11-09T05:08:58.623Z,57.87
2017-11-09T05:11:26.126Z,58.83
2017-11-09T05:13:53.695Z,58.00
2017-11-09T05:16:21.203Z,60.90
2017-11-09T05:18:49.467Z,55.97
2017-11-09T05:21:17.023Z,58.00
2017-11-09T05:23:44.522Z,55.07
2017-11-09T05:26:12.845Z,58.37
2017-11-09T05:28:40.351Z,54.47
2017-11-09T05:31:07.888Z,59.03
2017-11-09T05:33:35.403Z,60.20
2017-11-09T05:36:02.944Z,60.77
2017-11-09T05:38:30.447Z,63.83
2017-11-09T05:40:57.990Z,61.47
2017-11-09T05:43:25.486Z,61.00
2017-11-09T05:45:52.987Z,65.03
2017-11-09T05:48:21.286Z,61.30
2017-11-09T05:50:49.562Z,61.50
2017-11-09T05:53:17.864Z,62.47
2017-11-09T05:55:46.123Z,66.47
2017-11-09T05:58:13.664Z,64.10
2017-11-09T06:00:41.170Z,67.10
2017-11-09T06:03:08.706Z,63.80
2017-11-09T06:05:36.203Z,64.07
2017-11-09T06:08:03.738Z,63.73
2017-11-09T06:10:31.239Z,64.50
2017-11-09T06:12:58.772Z,62.40
2017-11-09T06:15:26.275Z,61.03
2017-11-09T06:17:53.826Z,61.67
2017-11-09T06:20:21.321Z,65.60
2017-11-09T06:22:48.823Z,63.70
2017-11-09T06:25:16.354Z,64.10
2017-11-09T06:27:43.857Z,63.47
2017-11-09T06:30:11.398Z,62.50
2017-11-09T06:32:38.894Z,62.53
2017-11-09T06:35:06.430Z,62.53
2017-11-09T06:37:33.945Z,62.37
2017-11-09T06:40:01.506Z,66.10
2017-11-09T06:42:29.002Z,65.60
2017-11-09T06:44:57.314Z,65.87
2017-11-09T06:47:24.856Z,63.80
2017-11-09T06:49:52.359Z,63.97
2017-11-09T06:52:19.900Z,64.13
2017-11-09T06:54:47.399Z,63.43
2017-11-09T06:57:15.703Z,65.50
2017-11-09T06:59:43.199Z,62.60
2017-11-09T07:02:10.923Z,61.33
2017-11-09T07:04:39.194Z,63.17
2017-11-09T07:07:06.686Z,60.37
2017-11-09T07:09:34.988Z,61.93
2017-11-09T07:12:02.496Z,62.23
2017-11-09T07:14:30.027Z,59.70
2017-11-09T07:16:57.528Z,63.00
2017-11-09T07:19:25.054Z,62.10
2017-11-09T07:21:53.331Z,62.80
2017-11-09T07:24:20.874Z,63.50
2017-11-09T07:26:48.383Z,62.47
2017-11-09T07:29:16.703Z,60.33
2017-11-09T07:31:44.216Z,60.97
2017-11-09T07:34:11.715Z,61.90
2017-11-09T07:36:39.264Z,62.17
2017-11-09T07:39:06.760Z,63.87
2017-11-09T07:41:35.063Z,61.77
2017-11-09T07:44:02.571Z,58.30
2017-11-09T07:46:30.101Z,59.43
2017-11-09T07:48:58.367Z,56.27
2017-11-09T07:51:25.904Z,56.70
2017-11-09T07:53:53.411Z,55.77
2017-11-09T07:56:20.948Z,56.30
2017-11-09T07:58:48.447Z,52.70
2017-11-09T08:01:15.991Z,49.67
2017-11-09T08:03:43.495Z,51.17
2017-11-09T08:06:11.004Z,51.97
2017-11-09T08:08:38.559Z,47.90
2017-11-09T08:11:06.080Z,50.40
2017-11-09T08:13:33.616Z,47.93
2017-11-09T08:16:01.128Z,48.00
2017-11-09T08:18:28.685Z,47.80
2017-11-09T08:20:56.194Z,47.50
2017-11-09T08:23:23.727Z,46.30
2017-11-09T08:25:53.460Z,47.73
2017-11-09T08:28:22.746Z,44.90
2017-11-09T08:30:52.635Z,44.90
2017-11-09T08:33:22.108Z,47.33
2017-11-09T08:35:49.619Z,44.47
2017-11-09T08:38:17.162Z,45.07
2017-11-09T08:40:44.658Z,42.87
2017-11-09T08:43:12.219Z,45.77
2017-11-09T08:45:39.729Z,44.97
2017-11-09T08:48:07.278Z,44.50
2017-11-09T08:50:34.819Z,44.07
2017-11-09T08:53:02.323Z,43.37
2017-11-09T08:55:29.871Z,46.53
2017-11-09T08:57:57.378Z,43.63
2017-11-09T09:00:25.687Z,44.97
2017-11-09T09:02:53.955Z,45.77
2017-11-09T09:05:21.507Z,43.50
2017-11-09T09:07:49.006Z,43.80
2017-11-09T09:10:17.275Z,44.80
2017-11-09T09:12:44.813Z,53.33
2017-11-09T09:15:12.316Z,45.10
2017-11-09T09:17:39.859Z,44.30
2017-11-09T09:20:07.364Z,43.70
2017-11-09T09:22:49.786Z,44.80
2017-11-09T09:25:18.930Z,62.47
2017-11-09T09:27:50.141Z,49.27
2017-11-09T09:30:17.672Z,52.00
2017-11-09T09:36:04.195Z,46.47
2017-11-09T09:38:34.605Z,52.10
2017-11-09T09:41:02.107Z,48.90
2017-11-09T09:43:30.405Z,51.03
2017-11-09T09:45:57.906Z,49.83
2017-11-09T09:48:25.446Z,49.23
2017-11-09T09:50:52.954Z,54.60
2017-11-09T09:53:20.513Z,59.93
2017-11-09T09:55:48.027Z,71.60
2017-11-09T09:58:15.582Z,61.07
2017-11-09T10:00:43.084Z,55.43
2017-11-09T10:03:10.592Z,54.47
2017-11-09T10:05:38.147Z,54.00
2017-11-09T10:08:06.414Z,60.57
2017-11-09T10:10:33.954Z,61.47
2017-11-09T10:13:01.450Z,52.23
2017-11-09T10:15:28.983Z,65.63
2017-11-09T10:17:56.487Z,64.00
2017-11-09T10:20:24.028Z,59.47
2017-11-09T10:22:51.531Z,51.03
2017-11-09T10:25:19.071Z,52.47
2017-11-09T10:27:46.607Z,51.50
2017-11-09T10:30:14.886Z,52.43
2017-11-09T10:32:42.419Z,54.90
2017-11-09T10:35:09.919Z,51.20
2017-11-09T10:37:37.460Z,51.83
2017-11-09T10:40:04.956Z,51.00
2017-11-09T10:42:32.510Z,52.47
2017-11-09T10:45:00.019Z,51.97
2017-11-09T10:47:27.518Z,48.70
2017-11-09T10:49:55.061Z,49.33
2017-11-09T10:52:22.554Z,51.90
2017-11-09T10:54:50.856Z,50.20
2017-11-09T10:57:18.363Z,50.40
2017-11-09T10:59:45.924Z,51.17
2017-11-09T11:02:17.100Z,52.90
2017-11-09T11:04:44.651Z,51.13
2017-11-09T11:07:12.150Z,49.77
2017-11-09T11:09:39.650Z,49.93
2017-11-09T11:12:07.952Z,48.00
2017-11-09T11:14:35.472Z,46.87
2017-11-09T11:17:03.015Z,46.57
2017-11-09T11:19:30.509Z,46.03
2017-11-09T11:21:58.044Z,46.27
2017-11-09T11:24:25.555Z,44.90
2017-11-09T11:26:53.112Z,46.40
2017-11-09T11:29:20.614Z,44.57
2017-11-09T11:31:48.130Z,43.00
2017-11-09T11:34:15.666Z,41.90
2017-11-09T11:36:43.168Z,42.07
2017-11-09T11:39:10.727Z,43.80
2017-11-09T11:41:38.990Z,43.47
2017-11-09T11:44:06.524Z,44.47
2017-11-09T11:46:34.030Z,41.03
2017-11-09T11:49:01.560Z,41.50
2017-11-09T11:51:29.064Z,42.07
2017-11-09T11:53:56.602Z,39.97
2017-11-09T11:56:24.135Z,37.83
2017-11-09T11:58:52.402Z,41.43
2017-11-09T12:01:19.938Z,41.30
2017-11-09T12:03:47.444Z,39.83
2017-11-09T12:06:14.975Z,38.07
2017-11-09T12:08:42.482Z,37.17
2017-11-09T12:11:10.052Z,39.33
2017-11-09T12:13:37.562Z,36.27
2017-11-09T12:16:05.823Z,36.07
2017-11-09T12:18:33.363Z,36.87
2017-11-09T12:21:00.863Z,34.70
2017-11-09T12:23:29.166Z,39.50
2017-11-09T12:25:56.666Z,37.93
2017-11-09T12:28:24.968Z,34.00
2017-11-09T12:30:52.479Z,36.30
2017-11-09T12:33:20.016Z,36.23
2017-11-09T12:35:47.535Z,34.83
2017-11-09T12:38:15.066Z,33.67
2017-11-09T12:40:42.568Z,33.13
2017-11-09T12:43:10.139Z,34.07
2017-11-09T12:45:37.646Z,33.60
2017-11-09T12:48:05.907Z,32.20
2017-11-09T12:50:33.440Z,32.70
2017-11-09T12:53:00.948Z,30.13
2017-11-09T12:55:28.501Z,29.63
2017-11-09T12:57:56.003Z,30.07
2017-11-09T13:00:23.550Z,30.47
2017-11-09T13:02:51.042Z,30.67
2017-11-09T13:05:18.579Z,30.00
2017-11-09T13:07:46.079Z,27.73
2017-11-09T13:10:13.649Z,29.50
2017-11-09T13:12:41.138Z,29.30
2017-11-09T13:15:08.652Z,29.87
2017-11-09T13:17:36.198Z,30.27
2017-11-09T13:20:04.483Z,30.07
2017-11-09T13:22:32.809Z,30.63
2017-11-09T13:25:00.311Z,31.40
2017-11-09T13:27:27.851Z,30.57
2017-11-09T13:29:55.352Z,29.77
2017-11-09T13:32:23.651Z,26.70
2017-11-09T13:34:51.151Z,26.20
2017-11-09T13:37:19.479Z,28.07
2017-11-09T13:39:46.987Z,26.37
2017-11-09T13:42:14.492Z,23.37
2017-11-09T13:44:42.791Z,23.97
2017-11-09T13:47:10.295Z,21.57
2017-11-09T13:49:37.831Z,19.27
2017-11-09T13:52:05.331Z,21.93
2017-11-09T13:54:32.867Z,18.60
2017-11-09T13:57:00.372Z,21.03
2017-11-09T13:59:27.902Z,19.77
2017-11-09T14:01:56.164Z,19.83
2017-11-09T14:04:23.712Z,19.10
2017-11-09T14:06:51.221Z,22.67
2017-11-09T14:09:18.722Z,20.10
2017-11-09T14:11:46.274Z,20.10
2017-11-09T14:14:14.578Z,21.77
2017-11-09T14:16:42.119Z,20.07
2017-11-09T14:19:09.610Z,21.00
2017-11-09T14:21:37.906Z,24.17
2017-11-09T14:24:06.185Z,25.50
2017-11-09T14:26:33.731Z,23.17
2017-11-09T14:29:01.237Z,21.23
2017-11-09T14:31:29.559Z,19.43
2017-11-09T14:33:57.060Z,22.07
2017-11-09T14:36:24.558Z,19.27
2017-11-09T14:38:52.090Z,19.70
2017-11-09T14:41:19.592Z,21.10
2017-11-09T14:43:47.143Z,22.07
2017-11-09T14:46:14.650Z,24.87
2017-11-09T14:48:42.911Z,26.13
2017-11-09T14:51:10.443Z,26.03
2017-11-09T14:53:37.940Z,29.20
2017-11-09T14:56:05.462Z,27.27
2017-11-09T14:58:32.964Z,30.70
2017-11-09T15:01:00.495Z,31.50
2017-11-09T15:03:27.991Z,31.87
2017-11-09T15:05:55.523Z,31.17
2017-11-09T15:08:23.023Z,32.83
2017-11-09T15:10:51.333Z,31.10
2017-11-09T15:13:18.826Z,31.47
2017-11-09T15:15:52.248Z,32.77
2017-11-09T15:18:19.743Z,32.30
2017-11-09T15:20:47.234Z,31.80
2017-11-09T15:23:14.766Z,30.33
2017-11-09T15:25:42.266Z,33.93
2017-11-09T15:28:10.563Z,33.50
2017-11-09T15:30:38.823Z,33.63
2017-11-09T15:33:07.293Z,29.23
2017-11-09T15:35:36.765Z,31.30
2017-11-09T15:38:05.063Z,33.37
2017-11-09T15:40:32.568Z,33.60
2017-11-09T15:43:00.098Z,34.50
2017-11-09T15:45:27.598Z,34.43
2017-11-09T15:47:55.135Z,34.77
2017-11-09T15:50:23.404Z,36.10
2017-11-09T15:52:50.904Z,38.80
2017-11-09T15:55:18.467Z,36.70
2017-11-09T15:57:46.725Z,35.23
2017-11-09T16:00:14.255Z,36.33
2017-11-09T16:02:41.752Z,36.33
2017-11-09T16:05:09.279Z,36.40
2017-11-09T16:07:38.587Z,33.93
2017-11-09T16:10:06.855Z,33.47
2017-11-09T16:12:34.411Z,32.03
2017-11-09T16:15:01.924Z,32.67
2017-11-09T16:17:30.221Z,33.50
2017-11-09T16:19:57.713Z,35.00
2017-11-09T16:22:25.247Z,37.60
2017-11-09T16:24:53.513Z,38.30
2017-11-09T16:27:22.933Z,42.90
2017-11-09T16:29:50.431Z,36.33
2017-11-09T16:32:18.737Z,34.20
2017-11-09T16:34:46.256Z,33.83
2017-11-09T16:37:13.761Z,36.37
2017-11-09T16:39:42.059Z,35.70
2017-11-09T16:42:09.564Z,36.83
2017-11-09T16:44:37.108Z,33.40
2017-11-09T16:47:04.623Z,35.43
2017-11-09T16:49:32.156Z,39.00
2017-11-09T16:51:59.654Z,36.60
2017-11-09T16:54:27.201Z,40.77
2017-11-09T16:56:54.705Z,38.73
2017-11-09T16:59:22.202Z,40.80
2017-11-09T17:01:49.743Z,40.87
2017-11-09T17:04:17.342Z,40.03
2017-11-09T17:06:44.874Z,36.50
2017-11-09T17:09:12.371Z,42.77
2017-11-09T17:11:39.907Z,40.67
2017-11-09T17:14:07.419Z,39.33
2017-11-09T17:16:34.975Z,44.23
2017-11-09T17:19:02.475Z,41.77
2017-11-09T17:21:29.986Z,41.07
2017-11-09T17:23:57.539Z,39.93
2017-11-09T17:26:25.807Z,39.00
2017-11-09T17:28:54.124Z,33.80
2017-11-09T17:31:22.391Z,43.17
2017-11-09T17:33:49.942Z,40.27
2017-11-09T17:36:17.459Z,40.60
2017-11-09T17:38:45.023Z,37.80
2017-11-09T17:41:16.113Z,40.30
2017-11-09T17:43:48.593Z,43.47
2017-11-09T17:46:16.094Z,39.60
2017-11-09T17:48:43.628Z,47.10
2017-11-09T17:51:13.921Z,42.10
2017-11-09T17:53:41.455Z,42.07
2017-11-09T17:56:08.968Z,40.13
2017-11-09T17:58:38.445Z,40.77
2017-11-09T18:01:05.987Z,41.93
2017-11-09T18:03:35.050Z,43.33
2017-11-09T18:06:02.598Z,43.83
2017-11-09T18:08:30.107Z,43.90
2017-11-09T18:10:57.648Z,45.27
2017-11-09T18:13:25.150Z,45.10
2017-11-09T18:15:53.271Z,38.37
2017-11-09T18:18:20.770Z,42.47
2017-11-09T18:20:48.306Z,41.67
2017-11-09T18:23:16.576Z,41.07
2017-11-09T18:25:44.111Z,39.07
2017-11-09T18:28:11.632Z,44.53
2017-11-09T18:30:39.139Z,41.53
2017-11-09T18:33:06.672Z,43.00
2017-11-09T18:35:34.175Z,44.20
2017-11-09T18:38:01.704Z,41.30
2017-11-09T18:40:29.199Z,41.47
2017-11-09T18:42:56.734Z,39.77
2017-11-09T18:45:24.231Z,42.07
2017-11-09T18:47:52.546Z,45.27
2017-11-09T18:50:20.054Z,44.13
2017-11-09T18:52:47.554Z,44.70
2017-11-09T18:55:15.863Z,44.33
2017-11-09T18:57:44.126Z,45.10
2017-11-09T19:00:11.668Z,45.07
2017-11-09T19:02:39.183Z,41.20
2017-11-09T19:05:06.722Z,39.73
2017-11-09T19:07:34.226Z,40.77
2017-11-09T19:10:02.527Z,44.10
2017-11-09T19:12:30.874Z,43.10
2017-11-09T19:14:58.418Z,47.50
2017-11-09T19:17:25.931Z,48.20
2017-11-09T19:19:53.468Z,44.23
2017-11-09T19:22:20.963Z,46.30
2017-11-09T19:24:48.517Z,45.13
2017-11-09T19:27:16.021Z,48.83
2017-11-09T19:29:43.531Z,51.60
2017-11-09T19:32:11.076Z,47.53
2017-11-09T19:34:38.587Z,44.67
2017-11-09T19:37:06.534Z,45.67
2017-11-09T19:39:34.038Z,42.70
2017-11-09T19:42:01.601Z,48.40
2017-11-09T19:44:29.098Z,46.57
2017-11-09T19:46:56.635Z,47.90
2017-11-09T19:49:24.905Z,49.90
2017-11-09T19:51:52.820Z,52.73
2017-11-09T19:54:20.335Z,51.73
2017-11-09T19:56:47.860Z,50.37
2017-11-09T19:59:15.417Z,42.90
2017-11-09T20:01:42.935Z,46.70
2017-11-09T20:04:10.471Z,44.50
2017-11-09T20:06:37.968Z,37.30
2017-11-09T20:09:05.507Z,40.10
2017-11-09T20:11:33.024Z,43.50
2017-11-09T20:14:00.571Z,40.13
2017-11-09T20:16:28.074Z,41.87
2017-11-09T20:18:55.619Z,36.70
2017-11-09T20:21:23.114Z,38.57
2017-11-09T20:23:50.671Z,37.93
2017-11-09T20:26:18.168Z,39.70
2017-11-09T20:28:45.670Z,37.63
2017-11-09T20:31:13.980Z,37.30
2017-11-09T20:33:41.480Z,35.10
2017-11-09T20:36:09.016Z,33.87
2017-11-09T20:38:36.514Z,30.47
2017-11-09T20:41:04.047Z,33.00
2017-11-09T20:43:32.332Z,31.90
2017-11-09T20:45:59.866Z,33.53
2017-11-09T20:48:27.371Z,28.70
2017-11-09T20:50:55.789Z,32.53
2017-11-09T20:53:23.286Z,33.70
2017-11-09T20:55:50.840Z,45.20
2017-11-09T20:58:18.338Z,32.53
2017-11-09T21:00:45.832Z,31.07
2017-11-09T21:03:13.382Z,29.00
2017-11-09T21:05:40.887Z,29.77
2017-11-09T21:08:08.419Z,26.80
2017-11-09T21:10:35.911Z,29.00
2017-11-09T21:13:03.443Z,27.30
2017-11-09T21:15:30.964Z,27.90
2017-11-09T21:17:58.502Z,27.83
2017-11-09T21:20:26.018Z,28.20
2017-11-09T21:22:54.329Z,28.90
2017-11-09T21:25:22.591Z,29.27
2017-11-09T21:27:50.150Z,28.70
2017-11-09T21:30:17.652Z,27.90
2017-11-09T21:32:45.923Z,28.43
2017-11-09T21:35:13.459Z,29.20
2017-11-09T21:37:40.954Z,27.70
2017-11-09T21:40:08.511Z,29.93
2017-11-09T21:42:36.013Z,29.33
2017-11-09T21:45:03.554Z,31.10
2017-11-09T21:47:31.071Z,29.83
2017-11-09T21:49:58.615Z,28.40
2017-11-09T21:52:26.110Z,28.10
2017-11-09T21:54:54.390Z,28.40
2017-11-09T21:57:22.691Z,27.03
2017-11-09T21:59:50.956Z,29.57
2017-11-09T22:02:18.490Z,29.80
2017-11-09T22:04:45.986Z,27.17
2017-11-09T22:07:13.523Z,28.00
2017-11-09T22:09:41.023Z,27.50
2017-11-09T22:12:08.560Z,24.73
2017-11-09T22:14:36.063Z,26.43
2017-11-09T22:17:03.595Z,26.60
2017-11-09T22:19:31.096Z,24.70
2017-11-09T22:21:58.646Z,25.80
2017-11-09T22:24:26.150Z,24.27
2017-11-09T22:26:53.651Z,24.97
2017-11-09T22:29:21.186Z,25.30
2017-11-09T22:31:48.687Z,25.93
2017-11-09T22:34:16.227Z,27.47
2017-11-09T22:36:43.730Z,27.17
2017-11-09T22:39:11.266Z,26.07
2017-11-09T22:41:38.759Z,26.00
2017-11-09T22:44:06.303Z,27.90
2017-11-09T22:46:33.803Z,29.00
2017-11-09T22:49:01.295Z,27.43
2017-11-09T22:51:28.830Z,26.97
2017-11-09T22:53:56.330Z,27.30
2017-11-09T22:56:23.860Z,27.50
2017-11-09T22:58:51.362Z,26.57
2017-11-09T23:01:18.991Z,25.70
2017-11-09T23:03:46.549Z,24.53
2017-11-09T23:06:14.101Z,27.10
2017-11-09T23:08:41.590Z,25.27
2017-11-09T23:11:09.915Z,22.50
2017-11-09T23:13:37.411Z,26.10
2017-11-09T23:16:04.917Z,25.97
2017-11-09T23:18:33.219Z,23.87
2017-11-09T23:21:00.709Z,26.87
2017-11-09T23:23:28.243Z,22.93
2017-11-09T23:25:56.507Z,24.80
2017-11-09T23:28:24.044Z,25.87
2017-11-09T23:30:51.538Z,24.93
2017-11-09T23:33:21.864Z,25.47
2017-11-09T23:35:49.374Z,23.70
2017-11-09T23:38:16.902Z,24.23
2017-11-09T23:40:44.407Z,25.63
2017-11-09T23:43:11.972Z,24.73
2017-11-09T23:45:39.470Z,22.83
2017-11-09T23:48:08.075Z,27.07
2017-11-09T23:50:36.345Z,25.80
2017-11-09T23:53:03.838Z,26.40
2017-11-09T23:55:32.134Z,25.63
2017-11-09T23:58:00.398Z,26.33
